createdAt,value
2018-06-08T00:00:35.630Z,99.90
2018-06-08T00:03:03.705Z,99.90
2018-06-08T00:05:31.764Z,99.90
2018-06-08T00:07:59.827Z,99.90
2018-06-08T00:10:27.913Z,99.90
2018-06-08T00:12:55.943Z,99.90
2018-06-08T00:15:24.117Z,99.90
2018-06-08T00:17:52.178Z,99.90
2018-06-08T00:20:20.308Z,99.90
2018-06-08T00:22:48.390Z,99.90
2018-06-08T00:25:16.461Z,99.90
2018-06-08T00:27:44.523Z,99.90
2018-06-08T00:30:12.610Z,99.90
2018-06-08T00:32:40.680Z,99.90
2018-06-08T00:35:08.778Z,99.90
2018-06-08T00:37:36.825Z,99.90
2018-06-08T00:40:04.986Z,99.90
2018-06-08T00:42:33.017Z,99.90
2018-06-08T00:45:01.101Z,99.90
2018-06-08T00:47:29.178Z,99.90
2018-06-08T00:49:57.215Z,99.90
2018-06-08T00:52:25.293Z,99.90
2018-06-08T00:54:53.349Z,99.90
2018-06-08T00:57:21.517Z,99.90
2018-06-08T00:59:49.609Z,99.90
2018-06-08T01:02:17.648Z,99.90
2018-06-08T01:04:45.728Z,99.90
2018-06-08T01:07:13.775Z,99.90
2018-06-08T01:09:41.901Z,99.90
2018-06-08T01:12:09.977Z,99.90
2018-06-08T01:14:38.038Z,99.90
2018-06-08T01:17:06.126Z,99.90
2018-06-08T01:19:34.805Z,99.90
2018-06-08T01:22:02.997Z,99.90
2018-06-08T01:24:31.173Z,99.90
2018-06-08T01:26:59.225Z,99.90
2018-06-08T01:29:27.311Z,99.90
2018-06-08T01:31:55.341Z,99.90
2018-06-08T01:34:23.421Z,99.90
2018-06-08T01:36:51.503Z,99.90
2018-06-08T01:39:19.593Z,99.90
2018-06-08T01:41:47.677Z,99.90
2018-06-08T01:44:15.726Z,99.90
2018-06-08T01:46:43.797Z,99.90
2018-06-08T01:49:11.891Z,99.90
2018-06-08T01:51:39.930Z,99.90
2018-06-08T01:54:08.038Z,99.90
2018-06-08T01:56:36.077Z,99.90
2018-06-08T01:59:04.176Z,99.90
2018-06-08T02:01:32.241Z,99.90
2018-06-08T02:04:00.283Z,99.90
2018-06-08T02:06:28.358Z,99.90
2018-06-08T02:08:56.440Z,99.90
2018-06-08T02:11:24.553Z,99.90
2018-06-08T02:13:52.630Z,99.90
2018-06-08T02:16:20.690Z,99.90
2018-06-08T02:18:48.785Z,99.90
2018-06-08T02:21:16.847Z,99.90
2018-06-08T02:23:44.941Z,99.90
2018-06-08T02:26:13.015Z,99.90
2018-06-08T02:28:41.078Z,99.90
2018-06-08T02:31:09.157Z,99.90
2018-06-08T02:33:37.214Z,99.90
2018-06-08T02:36:05.298Z,99.90
2018-06-08T02:38:33.380Z,99.90
2018-06-08T02:41:01.455Z,99.90
2018-06-08T02:43:29.534Z,99.90
2018-06-08T02:45:57.582Z,99.90
2018-06-08T02:48:25.674Z,99.90
2018-06-08T02:50:53.745Z,99.90
2018-06-08T02:53:21.810Z,99.90
2018-06-08T02:55:49.903Z,99.90
2018-06-08T02:58:17.978Z,99.90
2018-06-08T03:00:46.074Z,99.90
2018-06-08T03:03:14.148Z,99.90
2018-06-08T03:05:42.192Z,99.90
2018-06-08T03:08:10.297Z,99.90
2018-06-08T03:10:38.353Z,99.90
2018-06-08T03:13:06.432Z,99.90
2018-06-08T03:15:34.522Z,99.90
2018-06-08T03:18:02.593Z,99.90
2018-06-08T03:20:30.655Z,99.90
2018-06-08T03:22:58.690Z,99.90
2018-06-08T03:25:26.761Z,99.90
2018-06-08T03:27:54.852Z,99.90
2018-06-08T03:30:22.909Z,99.90
2018-06-08T03:32:51.001Z,99.90
2018-06-08T03:35:19.031Z,99.90
2018-06-08T03:37:47.118Z,99.90
2018-06-08T03:40:15.228Z,99.90
2018-06-08T03:42:43.306Z,99.90
2018-06-08T03:45:11.489Z,99.90
2018-06-08T03:47:39.569Z,99.90
2018-06-08T03:50:07.637Z,99.90
2018-06-08T03:52:35.733Z,99.90
2018-06-08T03:57:31.397Z,99.90
2018-06-08T03:59:59.437Z,99.90
2018-06-08T04:02:27.512Z,99.90
2018-06-08T04:04:55.621Z,99.90
2018-06-08T04:07:23.675Z,99.90
2018-06-08T04:09:51.773Z,99.90
2018-06-08T04:12:19.825Z,99.90
2018-06-08T04:14:47.914Z,99.90
2018-06-08T04:17:15.984Z,99.90
2018-06-08T04:19:44.022Z,99.90
2018-06-08T04:22:12.089Z,99.90
2018-06-08T04:24:40.119Z,99.90
2018-06-08T04:27:08.181Z,99.90
2018-06-08T04:29:36.248Z,99.90
2018-06-08T04:32:04.386Z,99.90
2018-06-08T04:34:32.575Z,99.90
2018-06-08T04:37:00.851Z,99.90
2018-06-08T04:39:29.135Z,99.90
2018-06-08T04:41:57.374Z,99.90
2018-06-08T04:44:25.535Z,99.90
2018-06-08T04:46:53.867Z,99.90
2018-06-08T04:49:22.157Z,99.90
2018-06-08T04:51:50.493Z,99.90
2018-06-08T04:54:18.721Z,99.90
2018-06-08T04:56:46.899Z,99.90
2018-06-08T04:59:15.113Z,99.90
2018-06-08T05:01:43.309Z,99.90
2018-06-08T05:04:11.573Z,99.90
2018-06-08T05:06:39.782Z,99.90
2018-06-08T05:09:08.030Z,99.90
2018-06-08T05:11:36.274Z,99.90
2018-06-08T05:14:04.512Z,99.90
2018-06-08T05:16:32.700Z,99.90
2018-06-08T05:19:00.959Z,99.90
2018-06-08T05:21:29.176Z,99.90
2018-06-08T05:23:57.414Z,99.90
2018-06-08T05:26:25.612Z,99.90
2018-06-08T05:28:53.858Z,99.90
2018-06-08T05:31:22.113Z,99.90
2018-06-08T05:33:50.287Z,99.90
2018-06-08T05:36:18.526Z,99.90
2018-06-08T05:38:46.678Z,99.90
2018-06-08T05:41:14.961Z,99.90
2018-06-08T05:43:43.203Z,99.90
2018-06-08T05:46:11.461Z,99.90
2018-06-08T05:48:39.704Z,99.90
2018-06-08T05:51:07.957Z,99.90
2018-06-08T05:53:36.244Z,99.90
2018-06-08T05:56:04.582Z,99.90
2018-06-08T05:58:32.834Z,99.90
2018-06-08T06:01:01.111Z,99.90
2018-06-08T06:03:29.254Z,99.90
2018-06-08T06:05:57.509Z,99.90
2018-06-08T06:08:25.803Z,99.90
2018-06-08T06:10:54.023Z,99.90
2018-06-08T06:13:22.231Z,99.90
2018-06-08T06:15:50.405Z,99.90
2018-06-08T06:18:18.625Z,99.90
2018-06-08T06:20:46.908Z,99.90
2018-06-08T06:23:15.177Z,99.90
2018-06-08T06:25:43.451Z,99.90
2018-06-08T06:28:11.643Z,99.90
2018-06-08T06:30:39.839Z,99.90
2018-06-08T06:33:08.074Z,99.90
2018-06-08T06:35:36.253Z,99.90
2018-06-08T06:38:04.479Z,99.90
2018-06-08T06:40:32.683Z,99.90
2018-06-08T06:43:00.954Z,99.90
2018-06-08T06:45:29.250Z,99.90
2018-06-08T06:47:57.471Z,99.90
2018-06-08T06:50:25.759Z,99.90
2018-06-08T06:52:53.947Z,99.90
2018-06-08T06:55:22.198Z,99.90
2018-06-08T06:57:50.495Z,99.90
2018-06-08T07:00:18.770Z,99.90
2018-06-08T07:02:46.980Z,99.90
2018-06-08T07:05:15.145Z,99.90
2018-06-08T07:07:43.367Z,99.90
2018-06-08T07:10:11.640Z,99.90
2018-06-08T07:12:39.958Z,99.90
2018-06-08T07:15:08.161Z,99.90
2018-06-08T07:17:36.318Z,99.90
2018-06-08T07:20:04.549Z,99.90
2018-06-08T07:22:32.698Z,99.90
2018-06-08T07:25:00.911Z,99.90
2018-06-08T07:27:29.125Z,99.90
2018-06-08T07:29:57.304Z,99.90
2018-06-08T07:32:25.487Z,99.90
2018-06-08T07:34:53.727Z,99.90
2018-06-08T07:37:21.959Z,99.90
2018-06-08T07:39:50.246Z,99.90
2018-06-08T07:42:18.479Z,99.90
2018-06-08T07:44:46.659Z,99.90
2018-06-08T07:47:14.862Z,99.90
2018-06-08T07:49:43.135Z,99.90
2018-06-08T07:52:11.400Z,99.90
2018-06-08T07:54:39.629Z,99.90
2018-06-08T07:57:07.926Z,99.90
2018-06-08T07:59:36.188Z,99.90
2018-06-08T08:02:04.387Z,99.90
2018-06-08T08:04:32.614Z,99.90
2018-06-08T08:07:00.785Z,99.90
2018-06-08T08:09:28.990Z,99.90
2018-06-08T08:11:57.181Z,99.90
2018-06-08T08:14:25.471Z,99.90
2018-06-08T08:16:53.772Z,99.90
2018-06-08T08:19:22.022Z,99.90
2018-06-08T08:21:50.171Z,99.90
2018-06-08T08:24:18.422Z,99.90
2018-06-08T08:26:46.644Z,99.90
2018-06-08T08:29:14.893Z,99.90
2018-06-08T08:31:43.143Z,99.90
2018-06-08T08:34:11.442Z,99.90
2018-06-08T08:36:39.729Z,99.90
2018-06-08T08:39:09.414Z,99.90
2018-06-08T08:41:37.753Z,99.90
2018-06-08T08:44:06.219Z,99.90
2018-06-08T08:46:34.482Z,99.90
2018-06-08T08:49:02.806Z,99.90
2018-06-08T08:51:31.028Z,99.90
2018-06-08T08:53:59.273Z,99.90
2018-06-08T08:56:27.505Z,99.90
2018-06-08T08:58:55.707Z,99.90
2018-06-08T09:01:24.022Z,99.90
2018-06-08T09:03:52.262Z,99.90
2018-06-08T09:08:48.195Z,99.90
2018-06-08T09:11:16.503Z,99.90
2018-06-08T09:13:44.792Z,99.90
2018-06-08T09:16:13.056Z,99.90
2018-06-08T09:23:36.759Z,99.90
2018-06-08T09:26:05.374Z,99.90
2018-06-08T09:28:33.763Z,99.90
2018-06-08T09:31:02.011Z,99.90
2018-06-08T09:33:30.218Z,99.90
2018-06-08T09:35:58.382Z,99.90
2018-06-08T09:38:26.610Z,99.90
2018-06-08T09:40:54.799Z,99.90
2018-06-08T09:43:23.020Z,99.90
2018-06-08T09:45:51.546Z,99.90
2018-06-08T09:48:19.821Z,99.90
2018-06-08T09:50:48.050Z,99.90
2018-06-08T09:53:16.224Z,99.90
2018-06-08T09:55:44.535Z,99.90
2018-06-08T09:58:12.781Z,99.90
2018-06-08T10:00:42.684Z,99.90
2018-06-08T10:03:10.871Z,99.90
2018-06-08T10:05:39.085Z,99.90
2018-06-08T10:08:07.321Z,99.90
2018-06-08T10:10:35.602Z,99.90
2018-06-08T10:13:03.821Z,99.90
2018-06-08T10:15:32.143Z,99.90
2018-06-08T10:18:00.414Z,99.90
2018-06-08T10:20:28.650Z,99.90
2018-06-08T10:22:56.859Z,99.90
2018-06-08T10:25:25.101Z,99.90
2018-06-08T10:27:53.327Z,99.90
2018-06-08T10:30:21.455Z,99.90
2018-06-08T10:32:49.713Z,99.90
2018-06-08T10:35:17.948Z,99.90
2018-06-08T10:37:46.304Z,99.90
2018-06-08T10:40:14.465Z,99.90
2018-06-08T10:42:42.659Z,99.90
2018-06-08T10:45:11.025Z,99.90
2018-06-08T10:47:39.367Z,99.90
2018-06-08T10:52:35.364Z,99.90
2018-06-08T10:55:03.578Z,99.90
2018-06-08T10:57:41.987Z,99.90
2018-06-08T11:00:10.199Z,99.90
2018-06-08T11:02:38.447Z,99.90
2018-06-08T11:05:06.696Z,99.90
2018-06-08T11:07:34.859Z,99.90
2018-06-08T11:10:03.063Z,99.90
2018-06-08T11:12:31.262Z,99.90
2018-06-08T11:14:59.507Z,99.90
2018-06-08T11:17:27.727Z,99.90
2018-06-08T11:19:55.989Z,99.90
2018-06-08T11:22:24.223Z,99.90
2018-06-08T11:24:52.397Z,99.90
2018-06-08T11:27:20.637Z,99.90
2018-06-08T11:29:49.354Z,99.90
2018-06-08T11:32:17.964Z,99.90
2018-06-08T11:34:46.166Z,99.90
2018-06-08T11:37:14.387Z,99.90
2018-06-08T11:39:42.689Z,99.90
2018-06-08T11:42:10.913Z,99.90
2018-06-08T11:44:39.390Z,99.90
2018-06-08T11:47:07.608Z,99.90
2018-06-08T11:49:35.827Z,99.90
2018-06-08T11:52:04.114Z,99.90
2018-06-08T11:54:32.357Z,99.90
2018-06-08T11:57:00.569Z,99.90
2018-06-08T11:59:29.010Z,99.90
2018-06-08T12:01:57.207Z,99.90
2018-06-08T12:04:25.418Z,99.90
2018-06-08T12:06:53.763Z,99.90
2018-06-08T12:09:22.016Z,99.90
2018-06-08T12:11:50.180Z,98.80
2018-06-08T12:14:18.253Z,99.90
2018-06-08T12:16:46.326Z,97.40
2018-06-08T12:21:41.981Z,97.10
2018-06-08T12:24:10.238Z,97.60
2018-06-08T12:26:38.282Z,96.80
2018-06-08T12:29:06.383Z,95.90
2018-06-08T12:31:34.465Z,94.90
2018-06-08T12:34:02.538Z,97.30
2018-06-08T12:36:30.629Z,94.30
2018-06-08T12:38:58.672Z,98.70
2018-06-08T12:43:54.359Z,95.40
2018-06-08T12:46:22.430Z,93.00
2018-06-08T12:48:50.547Z,93.30
2018-06-08T12:51:18.606Z,92.40
2018-06-08T12:53:46.665Z,94.30
2018-06-08T12:56:14.769Z,90.40
2018-06-08T13:01:10.482Z,89.80
2018-06-08T13:03:38.541Z,88.00
2018-06-08T13:06:06.639Z,92.70
2018-06-08T13:08:34.714Z,90.40
2018-06-08T13:11:02.745Z,91.20
2018-06-08T13:13:30.822Z,91.30
2018-06-08T13:15:58.870Z,87.80
2018-06-08T13:18:27.130Z,90.40
2018-06-08T13:20:55.206Z,90.60
2018-06-08T13:23:23.278Z,87.80
2018-06-08T13:25:51.362Z,91.10
2018-06-08T13:28:19.435Z,82.60
2018-06-08T13:30:47.522Z,87.70
2018-06-08T13:33:15.607Z,83.40
2018-06-08T13:35:43.648Z,82.80
2018-06-08T13:38:11.746Z,80.30
2018-06-08T13:40:39.802Z,79.10
2018-06-08T13:43:07.890Z,79.80
2018-06-08T13:45:36.009Z,76.80
2018-06-08T13:48:04.065Z,82.40
2018-06-08T13:50:32.185Z,83.40
2018-06-08T13:53:00.216Z,81.80
2018-06-08T13:55:28.312Z,82.00
2018-06-08T13:57:56.413Z,76.50
2018-06-08T14:00:24.506Z,78.30
2018-06-08T14:02:52.675Z,78.10
2018-06-08T14:05:26.229Z,74.70
2018-06-08T14:07:54.425Z,76.80
2018-06-08T14:10:22.522Z,74.30
2018-06-08T14:12:50.583Z,73.80
2018-06-08T14:15:18.681Z,73.40
2018-06-08T14:17:46.732Z,75.10
2018-06-08T14:20:14.857Z,71.90
2018-06-08T14:22:42.957Z,75.20
2018-06-08T14:25:11.006Z,68.00
2018-06-08T14:27:39.158Z,71.20
2018-06-08T14:30:07.178Z,74.70
2018-06-08T14:32:35.393Z,72.20
2018-06-08T14:35:03.487Z,69.60
2018-06-08T14:37:31.549Z,73.30
2018-06-08T14:39:59.629Z,71.10
2018-06-08T14:42:27.814Z,72.80
2018-06-08T14:44:55.914Z,73.00
2018-06-08T14:47:23.985Z,74.40
2018-06-08T14:49:52.038Z,75.20
2018-06-08T14:52:20.110Z,75.40
2018-06-08T14:54:48.183Z,78.80
2018-06-08T14:57:16.250Z,79.90
2018-06-08T14:59:44.381Z,82.50
2018-06-08T15:02:12.440Z,84.20
2018-06-08T15:04:40.589Z,86.60
2018-06-08T15:07:08.629Z,86.70
2018-06-08T15:09:36.697Z,87.30
2018-06-08T15:12:04.794Z,89.10
2018-06-08T15:17:17.019Z,86.50
2018-06-08T15:19:45.071Z,86.90
2018-06-08T15:22:13.142Z,87.20
2018-06-08T15:24:41.226Z,87.10
2018-06-08T15:27:09.281Z,87.60
2018-06-08T15:29:37.390Z,89.40
2018-06-08T15:32:05.581Z,87.70
2018-06-08T15:34:33.684Z,88.20
2018-06-08T15:37:01.812Z,88.50
2018-06-08T15:39:29.838Z,88.80
2018-06-08T15:41:57.928Z,87.10
2018-06-08T15:44:25.979Z,86.60
2018-06-08T15:46:54.085Z,87.20
2018-06-08T15:49:22.141Z,87.50
2018-06-08T15:51:50.215Z,87.80
2018-06-08T15:54:18.309Z,89.30
2018-06-08T15:56:46.422Z,85.60
2018-06-08T15:59:14.673Z,87.10
2018-06-08T16:01:42.805Z,87.90
2018-06-08T16:04:10.891Z,85.70
2018-06-08T16:06:38.966Z,83.40
2018-06-08T16:09:14.477Z,84.40
2018-06-08T16:11:42.637Z,83.40
2018-06-08T16:14:10.725Z,82.40
2018-06-08T16:16:38.770Z,82.10
2018-06-08T16:19:06.953Z,82.20
2018-06-08T16:21:34.993Z,82.90
2018-06-08T16:24:03.185Z,83.10
2018-06-08T16:26:32.975Z,83.00
2018-06-08T16:31:29.150Z,82.20
2018-06-08T16:33:57.209Z,82.30
2018-06-08T16:36:25.277Z,82.00
2018-06-08T16:38:53.369Z,80.60
2018-06-08T16:41:25.948Z,82.30
2018-06-08T16:44:12.045Z,80.40
2018-06-08T16:50:11.516Z,79.60
2018-06-08T16:53:21.704Z,80.40
2018-06-08T17:03:01.606Z,79.50
2018-06-08T17:05:32.734Z,78.70
2018-06-08T17:10:41.809Z,82.90
2018-06-08T17:13:14.606Z,83.60
2018-06-08T17:15:47.445Z,83.00
2018-06-08T17:18:15.597Z,84.20
2018-06-08T17:20:48.113Z,83.80
2018-06-08T17:23:16.430Z,83.70
2018-06-08T17:25:44.490Z,83.90
2018-06-08T17:28:12.621Z,84.90
2018-06-08T17:30:41.490Z,85.90
2018-06-08T17:33:09.640Z,86.00
2018-06-08T17:35:37.733Z,87.70
2018-06-08T17:38:05.811Z,88.90
2018-06-08T17:40:37.893Z,89.70
2018-06-08T17:43:05.959Z,90.30
2018-06-08T17:45:34.076Z,90.00
2018-06-08T17:48:02.225Z,90.80
2018-06-08T17:50:30.273Z,91.30
2018-06-08T17:52:58.362Z,91.90
2018-06-08T17:55:26.473Z,91.60
2018-06-08T17:57:54.543Z,91.80
2018-06-08T18:00:22.657Z,92.50
2018-06-08T18:02:50.795Z,92.90
2018-06-08T18:05:18.871Z,92.90
2018-06-08T18:07:46.994Z,93.40
2018-06-08T18:10:20.038Z,93.70
2018-06-08T18:12:48.124Z,94.00
2018-06-08T18:15:20.462Z,94.30
2018-06-08T18:17:48.628Z,94.60
2018-06-08T18:20:16.658Z,95.70
2018-06-08T18:22:44.722Z,96.10
2018-06-08T18:25:12.821Z,96.30
2018-06-08T18:27:40.901Z,96.50
2018-06-08T18:30:08.997Z,97.50
2018-06-08T18:32:54.906Z,96.80
2018-06-08T18:35:23.055Z,97.10
2018-06-08T18:37:51.262Z,98.10
2018-06-08T18:40:35.161Z,99.10
2018-06-08T18:45:54.697Z,99.80
2018-06-08T18:48:22.861Z,99.00
2018-06-08T18:50:51.006Z,99.60
2018-06-08T18:53:19.121Z,99.90
2018-06-08T18:56:03.527Z,99.90
2018-06-08T18:58:31.581Z,99.90
2018-06-08T19:00:59.666Z,99.90
2018-06-08T19:03:28.945Z,99.90
2018-06-08T19:05:56.986Z,99.90
2018-06-08T19:08:25.115Z,99.90
2018-06-08T19:10:53.172Z,99.90
2018-06-08T19:13:21.278Z,99.90
2018-06-08T19:15:49.358Z,99.90
2018-06-08T19:18:17.394Z,99.90
2018-06-08T19:20:45.653Z,99.90
2018-06-08T19:23:13.694Z,99.90
2018-06-08T19:25:41.775Z,99.90
2018-06-08T19:28:09.915Z,99.90
2018-06-08T19:30:37.991Z,99.90
2018-06-08T19:33:06.100Z,99.90
2018-06-08T19:35:34.194Z,99.90
2018-06-08T19:38:02.303Z,99.90
2018-06-08T19:40:30.679Z,99.90
2018-06-08T19:43:08.902Z,99.90
2018-06-08T19:45:37.015Z,99.90
2018-06-08T19:48:05.099Z,99.90
2018-06-08T19:50:43.199Z,99.90
2018-06-08T19:53:11.246Z,99.90
2018-06-08T19:55:39.323Z,99.90
2018-06-08T19:58:07.462Z,99.90
2018-06-08T20:00:35.695Z,99.90
2018-06-08T20:03:04.082Z,99.90
2018-06-08T20:05:32.298Z,99.90
2018-06-08T20:08:00.545Z,99.90
2018-06-08T20:10:28.868Z,99.90
2018-06-08T20:12:57.070Z,99.90
2018-06-08T20:15:25.450Z,99.90
2018-06-08T20:17:53.671Z,99.90
2018-06-08T20:20:21.945Z,99.90
2018-06-08T20:22:50.247Z,99.90
2018-06-08T20:28:06.122Z,99.90
2018-06-08T20:30:34.531Z,99.90
2018-06-08T20:33:02.716Z,99.90
2018-06-08T20:35:46.884Z,99.90
2018-06-08T20:38:15.137Z,99.90
2018-06-08T20:40:43.416Z,99.90
2018-06-08T20:43:15.745Z,99.90
2018-06-08T20:45:43.884Z,99.90
2018-06-08T20:48:11.989Z,99.90
2018-06-08T20:50:40.031Z,99.90
2018-06-08T20:53:08.118Z,99.90
2018-06-08T20:55:36.175Z,99.90
2018-06-08T20:58:04.253Z,99.90
2018-06-08T21:00:32.347Z,99.90
2018-06-08T21:03:00.474Z,99.90
2018-06-08T21:05:28.613Z,99.90
2018-06-08T21:07:56.657Z,99.90
2018-06-08T21:10:24.762Z,99.90
2018-06-08T21:12:52.821Z,99.90
2018-06-08T21:15:20.878Z,99.90
2018-06-08T21:17:48.954Z,99.90
2018-06-08T21:20:17.022Z,99.90
2018-06-08T21:22:45.093Z,99.90
2018-06-08T21:25:13.194Z,99.90
2018-06-08T21:27:41.238Z,99.90
2018-06-08T21:30:09.374Z,99.90
2018-06-08T21:32:37.417Z,99.90
2018-06-08T21:35:05.835Z,99.90
2018-06-08T21:37:33.901Z,99.90
2018-06-08T21:40:01.935Z,99.90
2018-06-08T21:42:30.029Z,99.90
2018-06-08T21:44:58.085Z,99.90
2018-06-08T21:47:26.221Z,99.90
2018-06-08T21:49:54.477Z,99.90
2018-06-08T21:52:22.711Z,99.90
2018-06-08T21:54:51.027Z,99.90
2018-06-08T21:57:19.308Z,99.90
2018-06-08T21:59:47.603Z,99.90
2018-06-08T22:02:15.824Z,99.90
2018-06-08T22:04:44.148Z,99.90
2018-06-08T22:07:12.497Z,99.90
2018-06-08T22:09:40.699Z,99.90
2018-06-08T22:12:09.074Z,99.90
2018-06-08T22:14:37.357Z,99.90
2018-06-08T22:17:05.579Z,99.90
2018-06-08T22:19:33.824Z,99.90
2018-06-08T22:22:02.060Z,99.90
2018-06-08T22:24:30.346Z,99.90
2018-06-08T22:26:58.554Z,99.90
2018-06-08T22:29:26.762Z,99.90
2018-06-08T22:31:54.973Z,99.90
2018-06-08T22:34:23.311Z,99.90
2018-06-08T22:36:51.519Z,99.90
2018-06-08T22:41:47.437Z,99.90
2018-06-08T22:44:15.674Z,99.90
2018-06-08T22:46:43.856Z,99.90
2018-06-08T22:49:12.135Z,99.90
2018-06-08T22:51:40.538Z,99.90
2018-06-08T22:54:08.753Z,99.90
2018-06-08T22:56:37.011Z,99.90
2018-06-08T22:59:05.265Z,99.90
2018-06-08T23:01:33.546Z,99.90
2018-06-08T23:04:01.739Z,99.90
2018-06-08T23:06:29.968Z,99.90
2018-06-08T23:08:58.196Z,99.90
2018-06-08T23:11:26.515Z,99.90
2018-06-08T23:13:54.766Z,99.90
2018-06-08T23:16:23.123Z,99.90
2018-06-08T23:21:19.107Z,99.90
2018-06-08T23:23:47.355Z,99.90
2018-06-08T23:26:15.842Z,99.90
2018-06-08T23:28:44.090Z,99.90
2018-06-08T23:31:12.311Z,99.90
2018-06-08T23:33:40.498Z,99.90
2018-06-08T23:36:08.763Z,99.90
2018-06-08T23:38:36.994Z,99.90
2018-06-08T23:41:05.327Z,99.90
2018-06-08T23:43:33.519Z,99.90
2018-06-08T23:46:01.718Z,99.90
2018-06-08T23:48:29.892Z,99.90
2018-06-08T23:50:58.147Z,99.90
2018-06-08T23:53:26.413Z,99.90
2018-06-08T23:55:54.586Z,99.90
2018-06-08T23:58:22.807Z,99.90
